createdAt,value
2019-05-30T00:01:45.950Z,17.40
2019-05-30T00:04:20.898Z,17.50
2019-05-30T00:06:54.186Z,17.50
2019-05-30T00:09:26.540Z,17.40
2019-05-30T00:12:05.089Z,17.40
2019-05-30T00:14:35.076Z,17.40
2019-05-30T00:17:06.917Z,17.30
2019-05-30T00:19:43.247Z,17.20
2019-05-30T00:22:13.229Z,17.10
2019-05-30T00:24:42.352Z,17.20
2019-05-30T00:27:13.777Z,17.20
2019-05-30T00:29:44.882Z,17.20
2019-05-30T00:32:20.736Z,17.10
2019-05-30T00:34:55.576Z,17.10
2019-05-30T00:37:35.090Z,17.00
2019-05-30T00:40:31.197Z,17.00
2019-05-30T00:43:06.315Z,17.00
2019-05-30T00:45:42.249Z,17.00
2019-05-30T00:48:11.637Z,16.90
2019-05-30T00:50:47.272Z,16.80
2019-05-30T00:53:19.668Z,16.90
2019-05-30T00:55:49.787Z,16.90
2019-05-30T00:58:20.954Z,17.00
2019-05-30T01:00:51.958Z,16.90
2019-05-30T01:03:24.340Z,16.90
2019-05-30T01:05:54.763Z,16.90
2019-05-30T01:08:27.259Z,16.80
2019-05-30T01:10:59.491Z,16.80
2019-05-30T01:13:29.922Z,16.80
2019-05-30T01:16:01.403Z,16.80
2019-05-30T01:18:33.476Z,16.80
2019-05-30T01:21:05.290Z,16.80
2019-05-30T01:23:41.888Z,16.90
2019-05-30T01:26:14.119Z,16.80
2019-05-30T01:28:45.234Z,16.80
2019-05-30T01:31:28.860Z,16.70
2019-05-30T01:33:59.492Z,16.70
2019-05-30T01:36:29.440Z,16.80
2019-05-30T01:39:00.332Z,16.70
2019-05-30T01:41:31.364Z,16.70
2019-05-30T01:44:04.456Z,16.70
2019-05-30T01:46:36.810Z,16.80
2019-05-30T01:49:06.805Z,16.80
2019-05-30T01:51:37.973Z,16.80
2019-05-30T01:54:12.615Z,16.80
2019-05-30T01:56:44.027Z,16.80
2019-05-30T01:59:13.146Z,16.80
2019-05-30T02:01:49.539Z,16.80
2019-05-30T02:04:19.962Z,16.80
2019-05-30T02:06:49.403Z,16.80
2019-05-30T02:09:20.349Z,16.80
2019-05-30T02:11:51.417Z,16.90
2019-05-30T02:14:20.597Z,16.80
2019-05-30T02:16:56.436Z,16.80
2019-05-30T02:19:26.738Z,16.90
2019-05-30T02:21:58.073Z,16.90
2019-05-30T02:24:30.364Z,16.90
2019-05-30T02:27:02.102Z,17.00
2019-05-30T02:29:31.467Z,16.90
2019-05-30T02:32:02.954Z,16.90
2019-05-30T02:34:33.023Z,16.90
2019-05-30T02:37:05.657Z,16.90
2019-05-30T02:39:36.282Z,16.90
2019-05-30T02:42:07.140Z,16.90
2019-05-30T02:44:36.877Z,16.80
2019-05-30T02:47:07.368Z,16.90
2019-05-30T02:52:30.510Z,16.90
2019-05-30T02:55:06.636Z,16.90
2019-05-30T02:57:35.566Z,16.90
2019-05-30T03:00:12.349Z,17.00
2019-05-30T03:02:43.076Z,17.00
2019-05-30T03:05:15.438Z,16.90
2019-05-30T03:07:47.211Z,16.90
2019-05-30T03:10:24.417Z,16.90
2019-05-30T03:13:01.795Z,16.90
2019-05-30T03:15:35.854Z,16.80
2019-05-30T03:18:10.376Z,16.80
2019-05-30T03:20:42.495Z,16.90
2019-05-30T03:23:15.001Z,16.90
2019-05-30T03:25:55.106Z,17.00
2019-05-30T03:28:24.366Z,16.90
2019-05-30T03:31:27.335Z,16.90
2019-05-30T03:33:48.063Z,16.90
2019-05-30T03:36:28.367Z,16.90
2019-05-30T03:38:52.681Z,17.00
2019-05-30T03:41:32.661Z,17.00
2019-05-30T03:44:04.347Z,16.90
2019-05-30T03:46:40.521Z,16.90
2019-05-30T03:49:16.413Z,16.90
2019-05-30T03:51:51.453Z,16.90
2019-05-30T03:54:22.416Z,17.00
2019-05-30T03:57:01.976Z,17.00
2019-05-30T03:59:41.004Z,17.00
2019-05-30T04:02:55.986Z,17.00
2019-05-30T04:05:19.298Z,16.90
2019-05-30T04:07:53.848Z,17.00
2019-05-30T04:10:29.580Z,17.00
2019-05-30T04:13:28.665Z,17.00
2019-05-30T04:15:57.885Z,17.00
2019-05-30T04:18:27.262Z,17.00
2019-05-30T04:20:58.922Z,16.90
2019-05-30T04:23:34.694Z,16.90
2019-05-30T04:26:05.244Z,16.90
2019-05-30T04:28:36.333Z,17.00
2019-05-30T04:31:12.342Z,16.90
2019-05-30T04:33:41.419Z,17.00
2019-05-30T04:36:12.477Z,17.00
2019-05-30T04:38:54.354Z,17.00
2019-05-30T04:41:24.711Z,17.00
2019-05-30T04:43:56.144Z,17.10
2019-05-30T04:46:35.973Z,17.10
2019-05-30T04:49:12.177Z,17.10
2019-05-30T04:51:41.375Z,17.10
2019-05-30T04:54:21.555Z,17.20
2019-05-30T04:56:53.465Z,17.20
2019-05-30T04:59:28.733Z,17.30
2019-05-30T05:01:58.034Z,17.20
2019-05-30T05:04:40.294Z,17.30
2019-05-30T05:07:11.517Z,17.20
2019-05-30T05:09:41.921Z,17.20
2019-05-30T05:12:12.069Z,17.30
2019-05-30T05:14:41.981Z,17.30
2019-05-30T05:17:12.739Z,17.30
2019-05-30T05:19:41.950Z,17.30
2019-05-30T05:22:11.126Z,17.30
2019-05-30T05:24:40.350Z,17.30
2019-05-30T05:27:10.189Z,17.30
2019-05-30T05:29:39.472Z,17.30
2019-05-30T05:32:08.864Z,17.30
2019-05-30T05:34:38.043Z,17.40
2019-05-30T05:37:07.264Z,17.40
2019-05-30T05:39:36.512Z,17.40
2019-05-30T05:42:05.638Z,17.40
2019-05-30T05:44:34.767Z,17.50
2019-05-30T05:47:03.953Z,17.50
2019-05-30T05:49:33.132Z,17.50
2019-05-30T05:52:02.318Z,17.50
2019-05-30T05:54:31.430Z,17.50
2019-05-30T05:57:00.570Z,17.50
2019-05-30T05:59:29.696Z,17.60
2019-05-30T06:01:59.038Z,17.50
2019-05-30T06:04:28.279Z,17.60
2019-05-30T06:06:57.480Z,17.60
2019-05-30T06:09:26.747Z,17.60
2019-05-30T06:11:55.978Z,17.60
2019-05-30T06:14:26.203Z,17.60
2019-05-30T06:16:56.076Z,17.60
2019-05-30T06:19:25.508Z,17.60
2019-05-30T06:21:56.078Z,17.70
2019-05-30T06:24:25.706Z,17.80
2019-05-30T06:26:54.926Z,17.80
2019-05-30T06:29:24.193Z,17.80
2019-05-30T06:31:53.591Z,17.70
2019-05-30T06:34:32.840Z,17.70
2019-05-30T06:36:53.788Z,17.80
2019-05-30T06:39:23.464Z,17.80
2019-05-30T06:41:52.845Z,17.80
2019-05-30T06:44:22.077Z,17.90
2019-05-30T06:46:52.450Z,17.80
2019-05-30T06:49:22.795Z,17.80
2019-05-30T06:51:52.180Z,17.80
2019-05-30T06:54:22.063Z,17.90
2019-05-30T06:56:52.377Z,17.90
2019-05-30T06:59:21.504Z,17.90
2019-05-30T07:01:52.251Z,17.90
2019-05-30T07:04:23.150Z,18.00
2019-05-30T07:06:52.681Z,18.00
2019-05-30T07:09:22.668Z,18.00
2019-05-30T07:11:51.894Z,18.00
2019-05-30T07:14:21.072Z,18.00
2019-05-30T07:16:50.584Z,18.00
2019-05-30T07:19:19.706Z,18.00
2019-05-30T07:21:51.327Z,17.90
2019-05-30T07:24:20.451Z,18.00
2019-05-30T07:26:50.881Z,18.00
2019-05-30T07:29:21.022Z,18.00
2019-05-30T07:31:50.255Z,18.00
2019-05-30T07:34:21.551Z,18.10
2019-05-30T07:36:50.763Z,18.10
2019-05-30T07:39:20.117Z,18.10
2019-05-30T07:42:05.336Z,18.10
2019-05-30T07:44:21.491Z,18.10
2019-05-30T07:46:50.730Z,18.10
2019-05-30T07:49:20.032Z,18.20
2019-05-30T07:51:49.186Z,18.20
2019-05-30T07:54:20.414Z,18.30
2019-05-30T07:56:49.552Z,18.30
2019-05-30T07:59:19.686Z,18.30
2019-05-30T08:01:51.303Z,18.30
2019-05-30T08:04:20.489Z,18.30
2019-05-30T08:06:50.075Z,18.40
2019-05-30T08:09:19.383Z,18.40
2019-05-30T08:11:50.664Z,18.50
2019-05-30T08:14:19.904Z,18.40
2019-05-30T08:16:49.182Z,18.40
2019-05-30T08:19:18.420Z,18.50
2019-05-30T08:21:47.685Z,18.50
2019-05-30T08:24:16.875Z,18.50
2019-05-30T08:26:46.260Z,18.40
2019-05-30T08:29:15.452Z,18.40
2019-05-30T08:31:44.792Z,18.40
2019-05-30T08:34:13.956Z,18.50
2019-05-30T08:36:43.322Z,18.50
2019-05-30T08:39:12.512Z,18.50
2019-05-30T08:41:42.868Z,18.60
2019-05-30T08:44:25.341Z,18.60
2019-05-30T08:46:52.139Z,18.60
2019-05-30T08:49:21.404Z,18.60
2019-05-30T08:51:50.550Z,18.70
2019-05-30T08:54:23.556Z,18.70
2019-05-30T08:56:56.005Z,18.70
2019-05-30T08:59:25.630Z,18.80
2019-05-30T09:01:54.864Z,18.90
2019-05-30T09:04:24.120Z,19.00
2019-05-30T09:06:53.363Z,19.00
2019-05-30T09:09:22.776Z,19.10
2019-05-30T09:11:52.075Z,19.30
2019-05-30T09:14:21.230Z,19.30
2019-05-30T09:16:51.129Z,19.40
2019-05-30T09:19:20.467Z,19.30
2019-05-30T09:21:49.756Z,19.20
2019-05-30T09:24:18.890Z,19.30
2019-05-30T09:26:50.323Z,19.30
2019-05-30T09:29:19.077Z,19.40
2019-05-30T09:31:48.715Z,19.40
2019-05-30T09:34:18.088Z,19.40
2019-05-30T09:36:47.413Z,19.50
2019-05-30T09:39:16.575Z,19.60
2019-05-30T09:41:45.804Z,19.60
2019-05-30T09:44:15.089Z,19.60
2019-05-30T09:46:44.339Z,19.70
2019-05-30T09:49:14.950Z,19.80
2019-05-30T09:51:45.220Z,19.90
2019-05-30T09:54:15.501Z,19.90
2019-05-30T09:56:44.985Z,19.90
2019-05-30T09:59:16.862Z,19.80
2019-05-30T10:01:50.040Z,19.70
2019-05-30T10:04:30.035Z,19.70
2019-05-30T10:07:00.841Z,19.70
2019-05-30T10:09:30.053Z,19.60
2019-05-30T10:12:00.120Z,19.60
2019-05-30T10:14:29.748Z,19.60
2019-05-30T10:16:59.186Z,19.70
2019-05-30T10:19:28.455Z,19.70
2019-05-30T10:21:57.652Z,19.70
2019-05-30T10:24:26.773Z,19.70
2019-05-30T10:26:58.410Z,19.70
2019-05-30T10:29:28.049Z,19.70
2019-05-30T10:31:57.328Z,19.60
2019-05-30T10:34:26.661Z,19.70
2019-05-30T10:37:02.432Z,19.70
2019-05-30T10:39:33.418Z,19.70
2019-05-30T10:42:02.716Z,19.70
2019-05-30T10:44:33.289Z,19.70
2019-05-30T10:47:02.453Z,19.70
2019-05-30T10:49:35.065Z,19.80
2019-05-30T10:52:03.099Z,19.80
2019-05-30T10:54:32.372Z,19.70
2019-05-30T10:57:02.862Z,19.70
2019-05-30T10:59:32.089Z,19.80
2019-05-30T11:02:01.210Z,19.90
2019-05-30T11:04:30.420Z,20.00
2019-05-30T11:07:11.700Z,19.90
2019-05-30T11:09:44.127Z,20.00
2019-05-30T11:12:13.864Z,20.10
2019-05-30T11:14:43.183Z,20.20
2019-05-30T11:17:12.468Z,20.40
2019-05-30T11:19:41.657Z,20.50
2019-05-30T11:22:10.987Z,20.60
2019-05-30T11:24:40.279Z,20.70
2019-05-30T11:27:09.623Z,20.70
2019-05-30T11:29:38.756Z,20.90
2019-05-30T11:32:10.012Z,20.90
2019-05-30T11:34:39.188Z,21.00
2019-05-30T11:37:18.537Z,21.10
2019-05-30T11:39:39.387Z,21.20
2019-05-30T11:42:08.516Z,21.40
2019-05-30T11:44:37.699Z,21.40
2019-05-30T11:47:06.943Z,21.40
2019-05-30T11:49:36.156Z,21.50
2019-05-30T11:52:05.370Z,21.50
2019-05-30T11:54:34.555Z,21.50
2019-05-30T11:57:03.720Z,21.50
2019-05-30T11:59:32.852Z,21.60
2019-05-30T12:02:02.131Z,21.70
2019-05-30T12:04:31.604Z,21.80
2019-05-30T12:07:00.958Z,21.80
2019-05-30T12:09:30.318Z,21.90
2019-05-30T12:11:59.554Z,22.00
2019-05-30T12:14:28.729Z,22.10
2019-05-30T12:16:57.996Z,22.20
2019-05-30T12:19:27.398Z,22.30
2019-05-30T12:21:57.701Z,22.50
2019-05-30T12:24:26.919Z,22.60
2019-05-30T12:26:56.083Z,22.70
2019-05-30T12:29:25.220Z,22.80
2019-05-30T12:31:57.572Z,23.00
2019-05-30T12:34:25.761Z,23.10
2019-05-30T12:36:54.971Z,23.20
2019-05-30T12:39:24.260Z,23.50
2019-05-30T12:41:53.398Z,23.70
2019-05-30T12:44:22.607Z,23.60
2019-05-30T12:46:53.210Z,23.80
2019-05-30T12:49:22.627Z,23.80
2019-05-30T12:51:52.008Z,23.70
2019-05-30T12:54:21.177Z,23.80
2019-05-30T12:56:50.437Z,24.00
2019-05-30T12:59:19.600Z,24.10
2019-05-30T13:01:49.181Z,24.00
2019-05-30T13:04:18.473Z,23.90
2019-05-30T13:06:47.613Z,24.00
2019-05-30T13:09:16.785Z,24.00
2019-05-30T13:11:45.977Z,24.00
2019-05-30T13:14:15.215Z,24.00
2019-05-30T13:16:47.471Z,24.20
2019-05-30T13:19:17.162Z,24.40
2019-05-30T13:21:47.631Z,24.70
2019-05-30T13:24:16.792Z,25.10
2019-05-30T13:26:47.592Z,25.30
2019-05-30T13:29:16.771Z,25.30
2019-05-30T13:31:48.331Z,25.30
2019-05-30T13:34:17.536Z,25.30
2019-05-30T13:36:47.943Z,25.60
2019-05-30T13:39:17.277Z,25.70
2019-05-30T13:41:46.568Z,25.90
2019-05-30T13:44:15.839Z,25.90
2019-05-30T13:46:44.996Z,26.10
2019-05-30T13:49:14.123Z,26.20
2019-05-30T13:51:43.268Z,26.10
2019-05-30T13:54:12.467Z,26.00
2019-05-30T13:56:41.605Z,26.20
2019-05-30T13:59:10.840Z,26.30
2019-05-30T14:01:40.096Z,26.30
2019-05-30T14:04:10.358Z,26.30
2019-05-30T14:06:39.774Z,26.30
2019-05-30T14:09:10.952Z,26.50
2019-05-30T14:11:40.166Z,26.40
2019-05-30T14:14:09.338Z,26.30
2019-05-30T14:16:38.488Z,26.40
2019-05-30T14:19:10.767Z,26.70
2019-05-30T14:21:38.589Z,27.10
2019-05-30T14:24:09.235Z,27.40
2019-05-30T14:26:38.791Z,27.30
2019-05-30T14:29:09.754Z,27.40
2019-05-30T14:31:39.150Z,27.60
2019-05-30T14:34:08.335Z,27.70
2019-05-30T14:36:38.626Z,27.70
2019-05-30T14:39:09.021Z,27.60
2019-05-30T14:41:38.351Z,27.70
2019-05-30T14:44:07.605Z,27.60
2019-05-30T14:46:36.752Z,27.70
2019-05-30T14:49:06.498Z,27.70
2019-05-30T14:51:37.939Z,27.70
2019-05-30T14:54:07.117Z,28.00
2019-05-30T14:56:36.390Z,28.10
2019-05-30T14:59:06.808Z,28.10
2019-05-30T15:01:36.628Z,28.40
2019-05-30T15:04:07.056Z,28.80
2019-05-30T15:06:36.695Z,29.20
2019-05-30T15:09:20.100Z,29.30
2019-05-30T15:11:39.352Z,29.60
2019-05-30T15:14:08.815Z,29.60
2019-05-30T15:16:38.048Z,29.60
2019-05-30T15:19:08.103Z,29.40
2019-05-30T15:21:37.566Z,29.40
2019-05-30T15:24:09.686Z,29.40
2019-05-30T15:26:37.720Z,29.70
2019-05-30T15:29:08.044Z,30.20
2019-05-30T15:31:37.640Z,30.70
2019-05-30T15:34:08.383Z,30.90
2019-05-30T15:36:38.702Z,30.70
2019-05-30T15:39:08.984Z,30.80
2019-05-30T15:41:39.514Z,30.60
2019-05-30T15:44:09.457Z,30.60
2019-05-30T15:46:38.955Z,30.60
2019-05-30T15:49:08.226Z,30.50
2019-05-30T15:51:37.466Z,30.40
2019-05-30T15:54:08.732Z,30.30
2019-05-30T15:56:40.659Z,30.30
2019-05-30T15:59:09.799Z,30.30
2019-05-30T16:01:38.937Z,30.10
2019-05-30T16:04:08.280Z,29.80
2019-05-30T16:06:37.406Z,29.40
2019-05-30T16:09:07.184Z,28.80
2019-05-30T16:11:36.626Z,28.30
2019-05-30T16:14:05.978Z,28.00
2019-05-30T16:16:40.124Z,27.50
2019-05-30T16:19:17.296Z,27.20
2019-05-30T16:21:38.447Z,26.80
2019-05-30T16:24:09.827Z,26.40
2019-05-30T16:26:39.412Z,26.00
2019-05-30T16:29:09.798Z,25.60
2019-05-30T16:31:39.010Z,25.40
2019-05-30T16:34:08.310Z,25.10
2019-05-30T16:36:37.480Z,25.00
2019-05-30T16:39:07.816Z,25.00
2019-05-30T16:41:42.560Z,24.90
2019-05-30T16:44:08.315Z,24.70
2019-05-30T16:46:39.637Z,24.60
2019-05-30T16:49:08.781Z,24.30
2019-05-30T16:51:38.007Z,24.20
2019-05-30T16:54:07.162Z,24.10
2019-05-30T16:56:36.528Z,24.00
2019-05-30T16:59:06.117Z,23.90
2019-05-30T17:01:35.803Z,23.90
2019-05-30T17:04:05.654Z,23.80
2019-05-30T17:06:34.942Z,23.60
2019-05-30T17:09:05.440Z,23.50
2019-05-30T17:11:36.116Z,23.40
2019-05-30T17:14:05.688Z,23.30
2019-05-30T17:16:34.856Z,23.20
2019-05-30T17:19:04.105Z,23.10
2019-05-30T17:21:33.312Z,23.10
2019-05-30T17:24:02.556Z,23.00
2019-05-30T17:26:31.881Z,23.00
2019-05-30T17:29:01.087Z,22.90
2019-05-30T17:31:30.299Z,22.80
2019-05-30T17:34:00.847Z,22.80
2019-05-30T17:36:30.143Z,22.70
2019-05-30T17:38:59.247Z,22.70
2019-05-30T17:41:29.029Z,22.60
2019-05-30T17:43:58.349Z,22.70
2019-05-30T17:46:27.526Z,22.60
2019-05-30T17:48:56.656Z,22.60
2019-05-30T17:51:25.934Z,22.50
2019-05-30T17:53:55.099Z,22.50
2019-05-30T17:56:24.260Z,22.40
2019-05-30T17:58:53.416Z,22.30
2019-05-30T18:01:22.878Z,22.30
2019-05-30T18:03:52.398Z,22.20
2019-05-30T18:06:22.294Z,22.30
2019-05-30T18:08:51.569Z,22.20
2019-05-30T18:11:20.823Z,22.20
2019-05-30T18:13:50.094Z,22.10
2019-05-30T18:16:19.383Z,22.00
2019-05-30T18:18:48.741Z,21.90
2019-05-30T18:21:19.435Z,21.90
2019-05-30T18:23:48.851Z,21.90
2019-05-30T18:26:18.308Z,21.90
2019-05-30T18:28:50.282Z,21.80
2019-05-30T18:31:19.521Z,21.70
2019-05-30T18:33:49.907Z,21.80
2019-05-30T18:36:19.515Z,21.80
2019-05-30T18:38:48.676Z,21.90
2019-05-30T18:41:17.784Z,21.80
2019-05-30T18:43:48.424Z,21.80
2019-05-30T18:46:17.534Z,21.80
2019-05-30T18:48:46.853Z,21.80
2019-05-30T18:51:15.960Z,21.80
2019-05-30T18:53:45.113Z,21.80
2019-05-30T18:56:14.314Z,21.70
2019-05-30T18:58:43.474Z,21.70
2019-05-30T19:01:13.526Z,21.60
2019-05-30T19:03:42.773Z,21.50
2019-05-30T19:06:11.948Z,21.50
2019-05-30T19:08:41.234Z,21.60
2019-05-30T19:11:26.387Z,21.50
2019-05-30T19:13:41.501Z,21.50
2019-05-30T19:16:10.632Z,21.50
2019-05-30T19:18:39.784Z,21.40
2019-05-30T19:21:08.947Z,21.40
2019-05-30T19:23:39.757Z,21.30
2019-05-30T19:26:09.113Z,21.40
2019-05-30T19:28:38.207Z,21.40
2019-05-30T19:31:07.418Z,21.40
2019-05-30T19:33:37.107Z,21.40
2019-05-30T19:36:06.546Z,21.40
2019-05-30T19:38:35.774Z,21.30
2019-05-30T19:41:07.024Z,21.30
2019-05-30T19:43:36.180Z,21.30
2019-05-30T19:46:05.456Z,21.30
2019-05-30T19:48:34.567Z,21.30
2019-05-30T19:51:03.731Z,21.20
2019-05-30T19:53:32.893Z,21.30
2019-05-30T19:56:02.200Z,21.20
2019-05-30T19:58:33.438Z,21.20
2019-05-30T20:01:03.161Z,21.20
2019-05-30T20:03:38.595Z,21.20
2019-05-30T20:06:03.369Z,21.30
2019-05-30T20:08:47.993Z,21.20
2019-05-30T20:11:03.393Z,21.20
2019-05-30T20:13:33.063Z,21.20
2019-05-30T20:16:03.835Z,21.20
2019-05-30T20:18:33.566Z,21.10
2019-05-30T20:21:02.936Z,21.10
2019-05-30T20:23:47.328Z,21.10
2019-05-30T20:26:06.021Z,21.10
2019-05-30T20:28:35.293Z,21.20
2019-05-30T20:31:04.431Z,21.10
2019-05-30T20:33:34.462Z,21.10
2019-05-30T20:36:05.660Z,21.00
2019-05-30T20:38:34.887Z,21.00
2019-05-30T20:41:04.157Z,21.10
2019-05-30T20:43:33.475Z,21.10
2019-05-30T20:46:03.870Z,21.10
2019-05-30T20:48:33.031Z,21.10
2019-05-30T20:51:02.186Z,21.10
2019-05-30T20:53:31.367Z,21.10
2019-05-30T20:56:00.921Z,21.10
2019-05-30T20:58:30.049Z,21.10
2019-05-30T21:00:59.157Z,21.00
2019-05-30T21:03:28.470Z,21.00
2019-05-30T21:05:58.455Z,21.00
2019-05-30T21:08:27.680Z,21.00
2019-05-30T21:10:58.626Z,21.00
2019-05-30T21:13:29.329Z,21.10
2019-05-30T21:16:00.209Z,21.00
2019-05-30T21:18:29.446Z,21.10
2019-05-30T21:20:58.588Z,21.10
2019-05-30T21:23:27.715Z,21.10
2019-05-30T21:25:56.939Z,21.20
2019-05-30T21:28:26.223Z,21.10
2019-05-30T21:30:55.402Z,21.10
2019-05-30T21:33:24.755Z,21.10
2019-05-30T21:35:53.941Z,21.10
2019-05-30T21:38:23.098Z,21.10
2019-05-30T21:40:52.254Z,21.10
2019-05-30T21:43:21.408Z,21.20
2019-05-30T21:45:52.552Z,21.10
2019-05-30T21:48:22.200Z,21.00
2019-05-30T21:50:51.444Z,21.00
2019-05-30T21:53:20.613Z,21.00
2019-05-30T21:55:50.225Z,21.00
2019-05-30T21:58:19.505Z,21.00
2019-05-30T22:01:32.868Z,21.00
2019-05-30T22:04:02.963Z,21.00
2019-05-30T22:06:32.101Z,21.00
2019-05-30T22:10:01.122Z,21.00
2019-05-30T22:11:32.282Z,21.00
2019-05-30T22:14:01.570Z,20.90
2019-05-30T22:16:31.050Z,20.90
2019-05-30T22:19:00.266Z,20.90
2019-05-30T22:21:29.799Z,20.90
2019-05-30T22:23:58.996Z,20.90
2019-05-30T22:26:28.139Z,20.80
2019-05-30T22:28:57.262Z,20.90
2019-05-30T22:31:27.361Z,20.90
2019-05-30T22:33:58.808Z,20.90
2019-05-30T22:36:28.024Z,20.90
2019-05-30T22:39:09.499Z,20.90
2019-05-30T22:41:38.705Z,20.90
2019-05-30T22:44:07.982Z,20.80
2019-05-30T22:46:37.266Z,20.90
2019-05-30T22:49:06.577Z,20.80
2019-05-30T22:51:35.783Z,20.80
2019-05-30T22:54:05.060Z,20.80
2019-05-30T22:56:34.214Z,20.80
2019-05-30T22:59:03.464Z,20.70
2019-05-30T23:01:32.600Z,20.70
2019-05-30T23:04:01.784Z,20.70
2019-05-30T23:06:30.997Z,20.70
2019-05-30T23:09:00.218Z,20.60
2019-05-30T23:11:31.283Z,20.70
2019-05-30T23:14:00.518Z,20.70
2019-05-30T23:16:29.822Z,20.70
2019-05-30T23:18:59.051Z,20.70
2019-05-30T23:21:28.985Z,20.60
2019-05-30T23:23:58.228Z,20.60
2019-05-30T23:26:27.465Z,20.50
2019-05-30T23:28:58.004Z,20.60
2019-05-30T23:31:30.107Z,20.60
2019-05-30T23:33:59.243Z,20.60
2019-05-30T23:36:29.129Z,20.60
2019-05-30T23:38:58.933Z,20.60
2019-05-30T23:41:28.253Z,20.70
2019-05-30T23:44:08.762Z,20.70
2019-05-30T23:46:28.800Z,20.60
2019-05-30T23:48:59.849Z,20.70
2019-05-30T23:51:29.252Z,20.60
2019-05-30T23:54:00.493Z,20.60
2019-05-30T23:56:29.838Z,20.60
2019-05-30T23:58:59.454Z,20.50
